Time;durP1;ratioP1;P1;durP2;ratioP2;P2;SDS_P1;SDS_P2;PMS_P1;PMS_P2;Temp;Humidity;BMP_temperature;BMP_pressure;BME280_temperature;BME280_humidity;BME280_pressure;Samples;Min_cycle;Max_cycle;Signal;HPM_P1;HPM_P2
2021/11/11 00:00:52;;;;;;;11.73;5.67;;;;;;;2.85;47.59;102278.55;1789495;78;21596;-59
2021/11/11 00:03:19;;;;;;;10.10;4.67;;;;;;;2.84;47.69;102285.50;1797736;78;21003;-59
2021/11/11 00:05:46;;;;;;;10.32;5.45;;;;;;;2.82;47.63;102288.99;1796695;78;21081;-60
2021/11/11 00:08:13;;;;;;;13.60;5.65;;;;;;;2.78;47.68;102287.74;1794489;78;21129;-58
2021/11/11 00:10:41;;;;;;;10.28;4.75;;;;;;;2.78;47.77;102283.84;1786504;78;21089;-58
2021/11/11 00:13:07;;;;;;;11.18;5.08;;;;;;;2.77;47.76;102279.97;1793384;78;21473;-59
2021/11/11 00:15:36;;;;;;;11.65;5.67;;;;;;;2.81;47.72;102276.87;1793266;78;21062;-59
2021/11/11 00:18:02;;;;;;;10.55;4.97;;;;;;;2.78;47.73;102276.50;1791622;77;21026;-59
2021/11/11 00:20:29;;;;;;;10.48;4.97;;;;;;;2.79;47.75;102279.49;1793550;78;21092;-59
2021/11/11 00:22:56;;;;;;;9.85;5.10;;;;;;;2.79;47.93;102285.98;1786664;78;21537;-59
2021/11/11 00:25:23;;;;;;;8.73;4.55;;;;;;;2.77;48.00;102271.75;1786483;78;21011;-58
2021/11/11 00:27:50;;;;;;;9.98;5.20;;;;;;;2.78;48.09;102265.64;1793401;79;21683;-59
2021/11/11 00:30:18;;;;;;;8.98;4.65;;;;;;;2.78;48.12;102266.09;1792528;79;21046;-59
2021/11/11 00:32:47;;;;;;;11.20;5.37;;;;;;;2.77;48.23;102260.05;1751136;80;21094;-59
2021/11/11 00:35:18;;;;;;;9.65;4.45;;;;;;;2.76;48.25;102262.22;1736912;80;21038;-59
2021/11/11 00:37:46;;;;;;;9.88;4.40;;;;;;;2.76;48.25;102260.92;1774913;79;21572;-59
2021/11/11 00:40:13;;;;;;;8.28;4.47;;;;;;;2.76;48.29;102258.32;1762355;79;20974;-59
2021/11/11 00:42:40;;;;;;;9.08;4.22;;;;;;;2.76;48.35;102254.42;1764461;79;21085;-59
2021/11/11 00:45:08;;;;;;;8.53;4.40;;;;;;;2.77;48.32;102252.67;1772455;80;21185;-59
2021/11/11 00:47:36;;;;;;;11.12;4.80;;;;;;;2.74;48.41;102252.30;1774514;79;21119;-59
2021/11/11 00:50:05;;;;;;;9.45;4.60;;;;;;;2.73;48.41;102246.67;1769694;80;21105;-59
2021/11/11 00:52:31;;;;;;;10.63;4.85;;;;;;;2.71;48.47;102248.45;1736413;80;21485;-59
2021/11/11 00:54:59;;;;;;;10.93;5.20;;;;;;;2.70;48.58;102249.77;1767600;80;21031;-59
2021/11/11 00:57:28;;;;;;;8.45;4.10;;;;;;;2.70;48.61;102252.37;1762940;79;21123;-59
2021/11/11 00:59:54;;;;;;;7.83;3.92;;;;;;;2.69;48.63;102246.73;1767323;80;21067;-59
2021/11/11 01:02:21;;;;;;;9.00;4.45;;;;;;;2.69;48.65;102241.55;1763475;79;20992;-59
2021/11/11 01:04:47;;;;;;;7.05;3.98;;;;;;;2.68;48.77;102232.89;1773658;80;20982;-59
2021/11/11 01:07:14;;;;;;;8.15;4.40;;;;;;;2.67;48.81;102233.77;1768395;79;21616;-59
2021/11/11 01:09:40;;;;;;;14.68;4.33;;;;;;;2.65;48.84;102232.09;1800779;77;21802;-59
2021/11/11 01:12:08;;;;;;;10.40;4.50;;;;;;;2.66;48.92;102229.47;1802610;77;21109;-59
2021/11/11 01:14:36;;;;;;;10.40;3.98;;;;;;;2.62;48.96;102229.09;1803035;77;21078;-59
2021/11/11 01:17:03;;;;;;;10.53;4.35;;;;;;;2.61;49.00;102228.70;1802251;78;21042;-60
2021/11/11 01:19:30;;;;;;;8.18;3.62;;;;;;;2.59;48.99;102223.97;1774521;78;21050;-59
2021/11/11 01:21:56;;;;;;;9.93;4.50;;;;;;;2.56;49.03;102216.23;1768849;80;21148;-60
2021/11/11 01:24:23;;;;;;;8.33;3.87;;;;;;;2.54;49.11;102225.77;1776972;78;21013;-59
2021/11/11 01:26:49;;;;;;;8.65;4.28;;;;;;;2.53;49.23;102216.27;1781437;80;21499;-59
2021/11/11 01:29:16;;;;;;;8.18;4.40;;;;;;;2.53;49.24;102214.97;1802560;77;21074;-59
2021/11/11 01:31:43;;;;;;;7.47;3.87;;;;;;;2.52;49.37;102214.55;1777719;78;21038;-59
2021/11/11 01:34:10;;;;;;;7.75;4.72;;;;;;;2.53;49.39;102210.63;1804044;77;21124;-59
2021/11/11 01:36:37;;;;;;;11.60;4.80;;;;;;;2.51;49.42;102208.95;1806972;78;21044;-59
2021/11/11 01:39:06;;;;;;;11.15;4.75;;;;;;;2.47;49.46;102208.57;1803223;77;21100;-59
2021/11/11 01:41:34;;;;;;;10.08;4.15;;;;;;;2.43;49.58;102203.02;1803287;78;21068;-59
2021/11/11 01:44:02;;;;;;;9.08;4.90;;;;;;;2.40;49.63;102201.31;1776721;77;21101;-58
2021/11/11 01:46:28;;;;;;;7.80;3.98;;;;;;;2.40;49.71;102201.31;1774983;79;21166;-60
2021/11/11 01:48:57;;;;;;;8.45;4.05;;;;;;;2.38;49.88;102198.74;1727526;80;21074;-59
2021/11/11 01:51:24;;;;;;;9.70;4.75;;;;;;;2.39;49.98;102192.67;1797375;77;21186;-59
2021/11/11 01:53:55;;;;;;;8.38;4.22;;;;;;;2.39;49.98;102198.33;1783345;78;20981;-59
2021/11/11 01:56:22;;;;;;;9.83;4.22;;;;;;;2.38;50.12;102196.14;1769387;78;20987;-58
2021/11/11 01:58:50;;;;;;;15.20;5.00;;;;;;;2.40;50.15;102193.52;1767691;78;21108;-59
2021/11/11 02:01:18;;;;;;;8.75;4.20;;;;;;;2.37;50.33;102192.27;1732640;80;21057;-59
2021/11/11 02:03:45;;;;;;;8.53;3.95;;;;;;;2.34;50.46;102184.10;1755559;79;21483;-59
2021/11/11 02:06:23;;;;;;;7.42;3.65;;;;;;;2.35;50.62;102175.41;1757730;78;21567;-60
2021/11/11 02:08:58;;;;;;;8.23;4.10;;;;;;;2.32;50.60;102175.48;1782491;78;21091;-60
2021/11/11 02:11:29;;;;;;;8.10;3.83;;;;;;;2.31;50.67;102167.72;1790070;77;21933;-58
2021/11/11 02:13:56;;;;;;;9.63;4.80;;;;;;;2.25;50.78;102163.91;1783909;79;21073;-58
2021/11/11 02:16:23;;;;;;;7.95;3.83;;;;;;;2.19;50.84;102154.05;1782070;78;21043;-59
2021/11/11 02:18:49;;;;;;;8.38;3.70;;;;;;;2.16;50.95;102161.03;1785123;78;21399;-59
2021/11/11 02:21:16;;;;;;;8.45;3.75;;;;;;;2.14;51.07;102151.12;1777939;78;20995;-60
2021/11/11 02:25:48;;;;;;;11.83;4.30;;;;;;;2.17;51.30;102148.44;1794913;78;22300;-59
2021/11/11 02:28:17;;;;;;;11.70;4.33;;;;;;;2.13;51.46;102150.69;1774561;79;21077;-59
2021/11/11 02:30:47;;;;;;;8.68;4.30;;;;;;;2.12;51.47;102139.88;1768836;78;21180;-59
2021/11/11 02:33:18;;;;;;;7.62;4.12;;;;;;;2.14;51.51;102142.88;1745260;80;21115;-59
2021/11/11 02:35:45;;;;;;;7.87;4.15;;;;;;;2.11;51.57;102136.42;1688660;82;21061;-60
2021/11/11 02:38:12;;;;;;;8.00;3.83;;;;;;;2.11;51.55;102146.81;1709256;81;21148;-59
2021/11/11 02:40:41;;;;;;;8.65;4.50;;;;;;;2.08;51.55;102138.22;1743698;81;21066;-59
2021/11/11 02:43:08;;;;;;;8.65;4.58;;;;;;;2.06;51.74;102135.65;1713457;81;21572;-59
2021/11/11 02:45:38;;;;;;;8.25;4.53;;;;;;;2.02;51.76;102141.34;1719016;81;21007;-59
2021/11/11 02:48:08;;;;;;;8.60;4.42;;;;;;;1.99;51.88;102136.19;1711793;83;21038;-59
2021/11/11 02:50:36;;;;;;;9.30;4.37;;;;;;;1.97;51.91;102129.33;1732740;80;21010;-59
2021/11/11 02:53:06;;;;;;;8.85;4.25;;;;;;;1.96;51.98;102120.66;1717686;82;21074;-59
2021/11/11 02:55:34;;;;;;;7.55;4.00;;;;;;;1.96;51.89;102123.25;1740532;80;21547;-59
2021/11/11 02:58:01;;;;;;;10.20;4.55;;;;;;;1.94;52.07;102117.69;1738946;80;21132;-59
2021/11/11 03:00:33;;;;;;;10.00;4.12;;;;;;;1.95;52.08;102118.95;1740060;80;21058;-59
2021/11/11 03:02:59;;;;;;;8.73;4.37;;;;;;;1.98;52.15;102120.18;1718815;83;21069;-59
2021/11/11 03:05:31;;;;;;;9.13;3.95;;;;;;;2.01;52.15;102119.29;1712359;83;21146;-59
2021/11/11 03:07:59;;;;;;;10.55;4.40;;;;;;;2.00;51.99;102109.36;1722940;81;21107;-59
2021/11/11 03:10:27;;;;;;;7.15;4.05;;;;;;;2.00;52.03;102110.66;1724611;81;21086;-59
2021/11/11 03:12:55;;;;;;;8.18;3.92;;;;;;;1.98;51.99;102102.00;1725428;81;21077;-59
2021/11/11 03:15:24;;;;;;;10.20;4.72;;;;;;;1.95;51.97;102099.48;1726146;82;21055;-59
2021/11/11 03:17:51;;;;;;;8.78;4.40;;;;;;;1.93;52.06;102092.14;1698277;82;21785;-59
2021/11/11 03:20:18;;;;;;;12.18;4.08;;;;;;;1.91;52.00;102092.61;1722619;81;21115;-59
2021/11/11 03:22:45;;;;;;;9.20;4.12;;;;;;;1.89;51.99;102089.19;1693380;81;21113;-59
2021/11/11 03:25:17;;;;;;;7.95;3.77;;;;;;;1.89;52.04;102090.94;1717796;81;21417;-59
2021/11/11 03:27:45;;;;;;;11.08;3.83;;;;;;;1.88;52.06;102087.47;1710438;82;21072;-59
2021/11/11 03:30:15;;;;;;;6.15;3.42;;;;;;;1.87;52.09;102087.07;1706014;82;21074;-59
2021/11/11 03:32:42;;;;;;;9.35;4.53;;;;;;;1.87;52.12;102088.37;1717362;83;21123;-59
2021/11/11 03:35:10;;;;;;;8.35;4.25;;;;;;;1.83;52.27;102078.48;1714107;82;21078;-59
2021/11/11 03:37:36;;;;;;;7.75;3.77;;;;;;;1.85;52.26;102075.86;1712742;82;21572;-59
2021/11/11 03:40:07;;;;;;;8.60;4.08;;;;;;;1.84;52.30;102071.54;1760521;79;21035;-59
2021/11/11 03:42:35;;;;;;;9.25;4.28;;;;;;;1.88;52.26;102077.08;1764857;80;21104;-59
2021/11/11 03:45:02;;;;;;;10.30;4.47;;;;;;;1.88;52.41;102078.83;1763401;79;22379;-59
2021/11/11 03:47:29;;;;;;;8.05;3.98;;;;;;;1.86;52.43;102071.06;1769085;79;20988;-59
2021/11/11 03:49:55;;;;;;;7.37;3.67;;;;;;;1.84;52.56;102069.80;1768663;79;21091;-59
2021/11/11 03:52:22;;;;;;;8.18;3.70;;;;;;;1.86;52.54;102069.77;1763547;80;21027;-59
2021/11/11 03:54:48;;;;;;;10.82;4.78;;;;;;;1.86;52.60;102061.98;1770644;79;21483;-59
2021/11/11 03:57:17;;;;;;;9.55;4.22;;;;;;;1.86;52.67;102059.39;1765992;79;21158;-59
2021/11/11 03:59:44;;;;;;;10.03;4.15;;;;;;;1.84;52.74;102046.88;1734355;80;21094;-59
2021/11/11 04:02:13;;;;;;;10.32;4.35;;;;;;;1.84;52.77;102038.64;1762745;79;21563;-59
2021/11/11 04:04:41;;;;;;;10.05;4.15;;;;;;;1.83;52.92;102039.97;1739675;80;21595;-59
2021/11/11 04:07:08;;;;;;;8.58;4.03;;;;;;;1.83;52.97;102035.66;1743056;80;21050;-59
2021/11/11 04:09:36;;;;;;;9.98;4.17;;;;;;;1.82;53.04;102035.22;1759778;79;21144;-59
2021/11/11 04:12:06;;;;;;;8.05;4.03;;;;;;;1.83;52.94;102028.28;1720743;79;20991;-60
2021/11/11 04:14:33;;;;;;;8.98;4.33;;;;;;;1.82;53.04;102025.30;1766376;79;21551;-60
2021/11/11 04:16:59;;;;;;;10.32;4.12;;;;;;;1.86;53.17;102021.75;1762138;79;21552;-60
2021/11/11 04:19:26;;;;;;;7.15;3.60;;;;;;;1.87;53.16;102014.39;1746883;80;21121;-61
2021/11/11 04:21:52;;;;;;;8.70;4.17;;;;;;;1.90;53.17;102005.25;1739189;80;21071;-60
2021/11/11 04:24:19;;;;;;;8.05;4.03;;;;;;;1.89;53.23;101997.04;1769488;79;22230;-61
2021/11/11 04:26:55;;;;;;;8.60;3.98;;;;;;;1.87;53.14;101989.73;1749750;80;20994;-61
2021/11/11 04:29:28;;;;;;;13.05;4.20;;;;;;;1.87;53.26;101984.53;1773434;79;21085;-60
2021/11/11 04:32:01;;;;;;;7.03;4.05;;;;;;;1.87;53.21;101985.83;1749572;80;21093;-61
2021/11/11 04:34:25;;;;;;;8.10;4.67;;;;;;;1.85;53.23;101983.27;1752919;79;21114;-60
2021/11/11 05:03:00;;;;;;;7.55;3.95;;;;;;;1.69;53.39;101982.27;1712946;82;21111;-59
2021/11/11 05:05:21;;;;;;;9.73;4.03;;;;;;;1.67;53.50;101972.75;1702376;82;21095;-60
2021/11/11 05:07:50;;;;;;;8.55;3.70;;;;;;;1.71;53.48;101974.00;1701758;82;21138;-63
2021/11/11 05:10:18;;;;;;;7.85;3.67;;;;;;;1.70;53.54;101977.05;1704245;82;21509;-61
2021/11/11 05:12:45;;;;;;;10.85;4.42;;;;;;;1.71;53.49;101980.04;1711068;82;21111;-61
2021/11/11 05:15:12;;;;;;;7.72;3.62;;;;;;;1.70;53.53;101978.77;1737623;81;21051;-66
2021/11/11 05:17:41;;;;;;;8.03;3.98;;;;;;;1.73;53.52;101968.34;1717468;81;21056;-59
2021/11/11 05:20:10;;;;;;;6.65;3.50;;;;;;;1.74;53.44;101972.66;1717918;82;21559;-61
2021/11/11 05:22:36;;;;;;;6.62;3.55;;;;;;;1.75;53.38;101975.23;1738949;81;21219;-62
2021/11/11 05:25:05;;;;;;;7.58;3.60;;;;;;;1.76;53.28;101983.41;1710012;82;22082;-63
2021/11/11 05:27:32;;;;;;;7.87;3.55;;;;;;;1.74;53.27;101990.38;1763791;79;21158;-62
2021/11/11 05:29:59;;;;;;;8.13;3.58;;;;;;;1.74;53.25;101987.78;1764484;80;21054;-63
2021/11/11 05:32:25;;;;;;;9.05;3.80;;;;;;;1.74;53.37;101978.70;1707618;82;21560;-65
2021/11/11 05:34:52;;;;;;;9.50;3.55;;;;;;;1.73;53.32;101991.70;1736777;80;21094;-64
2021/11/11 05:37:19;;;;;;;11.80;4.60;;;;;;;1.75;53.31;101991.22;1740244;80;21572;-64
2021/11/11 05:39:45;;;;;;;6.75;3.75;;;;;;;1.75;53.39;101987.33;1743333;80;21113;-63
2021/11/11 05:42:12;;;;;;;9.23;4.03;;;;;;;1.79;53.47;101984.66;1738849;80;21161;-63
2021/11/11 05:44:39;;;;;;;8.53;3.67;;;;;;;1.80;53.47;101987.68;1739050;80;21098;-62
2021/11/11 05:47:06;;;;;;;8.90;4.05;;;;;;;1.83;53.53;101984.16;1740239;80;21615;-59
2021/11/11 05:49:32;;;;;;;9.05;4.12;;;;;;;1.82;53.53;101982.02;1757813;79;21151;-62
2021/11/11 05:51:59;;;;;;;8.00;3.83;;;;;;;1.85;53.58;101982.41;1754919;79;21489;-60
2021/11/11 05:54:26;;;;;;;8.05;3.85;;;;;;;1.89;53.56;101981.47;1756535;80;21106;-63
2021/11/11 05:56:53;;;;;;;11.60;4.60;;;;;;;1.95;53.46;101980.48;1762750;80;22255;-62
2021/11/11 05:59:20;;;;;;;11.50;4.70;;;;;;;1.95;53.41;101979.19;1758180;80;21031;-62
2021/11/11 06:01:47;;;;;;;8.20;4.00;;;;;;;2.00;53.48;101975.64;1738448;80;21099;-62
2021/11/11 06:04:14;;;;;;;7.83;3.58;;;;;;;2.02;53.50;101965.23;1759832;79;21125;-63
2021/11/11 06:06:42;;;;;;;6.60;3.15;;;;;;;2.08;53.42;101965.54;1754243;79;21024;-63
2021/11/11 06:09:10;;;;;;;7.28;3.33;;;;;;;2.09;53.52;101964.22;1743222;80;21082;-62
2021/11/11 06:11:36;;;;;;;10.28;4.67;;;;;;;2.13;53.46;101955.92;1744819;79;21087;-63
2021/11/11 06:14:04;;;;;;;8.53;4.37;;;;;;;2.17;53.51;101960.16;1757102;79;22357;-61
2021/11/11 06:16:31;;;;;;;8.28;4.05;;;;;;;2.19;53.40;101945.42;1748936;80;21079;-63
2021/11/11 06:18:59;;;;;;;7.20;3.62;;;;;;;2.23;53.42;101954.39;1764248;80;21015;-62
2021/11/11 06:21:27;;;;;;;8.68;4.00;;;;;;;2.27;53.47;101955.64;1763102;79;21114;-61
2021/11/11 06:23:54;;;;;;;8.70;3.98;;;;;;;2.30;53.25;101955.58;1752960;80;21121;-62
2021/11/11 06:26:22;;;;;;;7.28;3.55;;;;;;;2.35;53.39;101952.44;1753154;80;21172;-63
2021/11/11 06:28:52;;;;;;;7.28;3.05;;;;;;;2.39;53.36;101952.36;1759617;80;21048;-63
2021/11/11 06:31:20;;;;;;;8.83;3.83;;;;;;;2.44;53.45;101951.39;1736442;80;21034;-60
2021/11/11 06:33:47;;;;;;;12.43;3.80;;;;;;;2.52;53.21;101955.56;1723922;80;21063;-63
2021/11/11 06:36:17;;;;;;;7.78;3.72;;;;;;;2.55;53.04;101956.77;1762160;80;21623;-62
2021/11/11 06:38:44;;;;;;;9.15;3.80;;;;;;;2.59;52.89;101956.29;1738662;80;21147;-63
2021/11/11 06:41:10;;;;;;;8.60;3.75;;;;;;;2.60;53.02;101956.69;1754571;80;21670;-62
2021/11/11 06:43:37;;;;;;;9.25;3.87;;;;;;;2.67;53.18;101948.31;1744252;80;21047;-61
2021/11/11 06:46:05;;;;;;;7.25;3.92;;;;;;;2.71;53.23;101942.17;1755694;80;21366;-63
2021/11/11 06:48:32;;;;;;;8.55;4.30;;;;;;;2.77;53.01;101935.52;1738157;81;21584;-62
2021/11/11 06:50:59;;;;;;;7.65;3.90;;;;;;;2.82;52.83;101931.52;1758842;80;21159;-62
2021/11/11 06:53:26;;;;;;;7.60;3.85;;;;;;;2.85;52.85;101920.59;1740904;80;21621;-62
2021/11/11 06:55:52;;;;;;;9.18;4.22;;;;;;;2.91;52.86;101915.72;1761049;80;21153;-63
2021/11/11 06:58:23;;;;;;;14.95;4.00;;;;;;;2.94;52.82;101909.13;1764298;80;21046;-62
2021/11/11 07:00:56;;;;;;;8.40;4.12;;;;;;;3.00;53.07;101910.74;1756631;80;21074;-63
2021/11/11 07:03:23;;;;;;;10.20;4.03;;;;;;;3.03;52.99;101908.92;1734326;80;21155;-63
2021/11/11 07:05:50;;;;;;;6.72;3.67;;;;;;;3.11;52.60;101908.72;1754822;80;21611;-63
2021/11/11 07:08:17;;;;;;;11.68;4.15;;;;;;;3.14;52.61;101902.14;1757465;79;21056;-64
2021/11/11 07:10:47;;;;;;;7.55;3.55;;;;;;;3.23;52.63;101908.86;1752211;80;21431;-64
2021/11/11 07:13:13;;;;;;;5.87;3.00;;;;;;;3.30;52.56;101905.23;1754412;80;21346;-63
2021/11/11 07:15:41;;;;;;;7.40;3.27;;;;;;;3.37;52.37;101905.47;1758217;80;21178;-63
2021/11/11 07:18:11;;;;;;;7.62;3.20;;;;;;;3.45;52.31;101903.53;1761008;79;21012;-65
2021/11/11 07:20:40;;;;;;;7.97;3.30;;;;;;;3.52;51.79;101902.47;1758207;79;21042;-64
2021/11/11 07:23:07;;;;;;;6.62;3.25;;;;;;;3.61;51.76;101894.02;1759292;79;21579;-63
2021/11/11 07:25:34;;;;;;;7.72;3.62;;;;;;;3.68;51.90;101900.76;1759371;80;21082;-64
2021/11/11 07:28:00;;;;;;;8.80;4.40;;;;;;;3.75;51.73;101889.73;1760611;80;21237;-63
2021/11/11 07:30:27;;;;;;;8.35;3.75;;;;;;;3.83;51.71;101893.86;1756655;80;21078;-64
2021/11/11 07:32:54;;;;;;;8.40;3.65;;;;;;;3.93;51.67;101901.40;1756432;80;21041;-62
2021/11/11 07:35:21;;;;;;;7.53;3.52;;;;;;;4.00;51.51;101896.41;1753991;80;21050;-65
2021/11/11 07:37:50;;;;;;;7.00;3.10;;;;;;;4.08;51.37;101899.23;1757271;80;21039;-61
2021/11/11 07:40:20;;;;;;;14.73;4.35;;;;;;;4.13;51.47;101901.68;1735272;80;21239;-62
2021/11/11 07:42:47;;;;;;;8.30;4.00;;;;;;;4.22;51.66;101896.64;1758845;79;21646;-61
2021/11/11 07:45:16;;;;;;;10.20;3.65;;;;;;;4.31;51.49;101901.61;1754901;80;21130;-65
2021/11/11 07:47:43;;;;;;;10.25;3.65;;;;;;;4.41;51.21;101912.61;1738600;80;21125;-66
2021/11/11 07:50:10;;;;;;;9.30;3.58;;;;;;;4.48;51.05;101925.02;1760212;80;21110;-65
2021/11/11 07:52:37;;;;;;;8.63;3.60;;;;;;;4.50;51.10;101894.08;1763260;80;21964;-64
2021/11/11 07:55:05;;;;;;;7.35;3.52;;;;;;;4.55;50.91;101893.48;1756985;79;21066;-64
2021/11/11 07:57:32;;;;;;;9.15;3.90;;;;;;;4.59;50.93;101902.06;1758292;79;20994;-64
2021/11/11 07:59:59;;;;;;;9.30;3.10;;;;;;;4.63;50.90;101899.78;1756613;80;21034;-63
2021/11/11 08:02:25;;;;;;;7.45;3.02;;;;;;;4.69;50.50;101893.51;1750739;80;21525;-65
2021/11/11 08:04:53;;;;;;;20.00;4.62;;;;;;;4.72;50.74;101900.78;1752632;80;20987;-66
2021/11/11 08:07:19;;;;;;;8.63;2.87;;;;;;;4.78;50.82;101893.23;1693339;82;21074;-66
2021/11/11 08:09:51;;;;;;;12.80;2.92;;;;;;;4.83;50.61;101884.35;1688313;84;21190;-66
2021/11/11 08:12:18;;;;;;;7.20;2.83;;;;;;;4.90;50.34;101881.10;1689196;83;21112;-66
2021/11/11 08:14:45;;;;;;;7.65;3.10;;;;;;;4.96;50.18;101874.82;1738145;80;21097;-65
2021/11/11 08:17:11;;;;;;;9.45;4.17;;;;;;;5.01;50.07;101873.78;1751672;80;23318;-66
2021/11/11 08:19:41;;;;;;;6.67;3.15;;;;;;;5.05;50.06;101869.31;1757517;80;21062;-66
2021/11/11 08:22:08;;;;;;;10.32;3.22;;;;;;;5.12;50.34;101869.97;1754778;79;21083;-66
2021/11/11 08:24:41;;;;;;;6.12;2.70;;;;;;;5.20;49.98;101863.58;1753658;80;21082;-66
2021/11/11 08:27:03;;;;;;;9.05;3.55;;;;;;;5.28;49.92;101869.86;1761099;79;21126;-65
2021/11/11 08:29:30;;;;;;;7.90;3.08;;;;;;;5.35;49.58;101873.11;1734716;79;21074;-66
2021/11/11 08:31:56;;;;;;;8.75;3.62;;;;;;;5.39;49.30;101873.39;1707736;82;21682;-66
2021/11/11 08:34:23;;;;;;;6.58;3.50;;;;;;;5.42;49.30;101871.98;1678541;83;21149;-65
2021/11/11 08:36:49;;;;;;;8.63;3.22;;;;;;;5.46;49.17;101879.25;1764326;79;21053;-65
2021/11/11 08:39:16;;;;;;;14.18;3.90;;;;;;;5.53;49.22;101867.25;1760351;79;21703;-66
2021/11/11 08:41:42;;;;;;;9.53;3.77;;;;;;;5.58;49.03;101871.86;1763782;79;21125;-67
2021/11/11 08:44:10;;;;;;;6.92;3.95;;;;;;;5.65;48.64;101879.02;1763032;80;22197;-66
2021/11/11 08:46:37;;;;;;;6.53;3.08;;;;;;;5.70;48.21;101859.25;1737006;80;21151;-66
2021/11/11 08:49:05;;;;;;;9.48;4.30;;;;;;;5.72;48.33;101866.59;1749319;80;21109;-66
2021/11/11 08:51:34;;;;;;;6.55;3.10;;;;;;;5.76;48.49;101849.89;1766773;79;21054;-66
2021/11/11 08:54:03;;;;;;;7.17;2.85;;;;;;;5.82;48.64;101841.84;1765466;80;21111;-66
2021/11/11 08:56:31;;;;;;;9.88;3.45;;;;;;;5.89;48.51;101834.63;1761349;80;21084;-66
2021/11/11 08:59:00;;;;;;;10.60;3.33;;;;;;;5.97;48.79;101836.54;1729758;80;21043;-65
2021/11/11 09:01:27;;;;;;;7.53;3.00;;;;;;;6.06;47.91;101834.03;1761527;79;21078;-66
2021/11/11 09:03:55;;;;;;;6.75;2.87;;;;;;;6.11;47.46;101831.62;1733556;80;21032;-65
2021/11/11 09:06:22;;;;;;;8.63;3.30;;;;;;;6.15;47.54;101821.91;1765547;80;22351;-64
2021/11/11 09:08:51;;;;;;;7.03;2.45;;;;;;;6.21;47.76;101821.67;1764929;79;21007;-65
2021/11/11 09:11:16;;;;;;;7.58;3.05;;;;;;;6.27;46.93;101810.99;1766424;79;21033;-64
2021/11/11 09:13:46;;;;;;;8.40;3.15;;;;;;;6.35;46.88;101815.90;1768509;79;21102;-65
2021/11/11 09:16:13;;;;;;;6.35;2.77;;;;;;;6.41;46.78;101803.91;1765514;79;21046;-66
2021/11/11 09:18:41;;;;;;;5.85;2.40;;;;;;;6.46;46.70;101797.19;1766136;80;21035;-66
2021/11/11 09:21:10;;;;;;;7.78;3.20;;;;;;;6.52;46.89;101795.61;1765775;79;21595;-66
2021/11/11 09:23:39;;;;;;;7.58;2.83;;;;;;;6.58;46.77;101788.84;1737225;80;21098;-66
2021/11/11 09:26:05;;;;;;;7.28;2.50;;;;;;;6.65;46.42;101776.36;1766521;80;22337;-62
2021/11/11 09:28:34;;;;;;;7.15;2.70;;;;;;;6.73;46.19;101772.97;1757463;80;21092;-63
2021/11/11 09:31:01;;;;;;;8.45;3.12;;;;;;;6.81;46.38;101761.73;1756492;80;21163;-65
2021/11/11 09:33:27;;;;;;;5.78;2.70;;;;;;;6.93;46.39;101762.98;1738991;80;21059;-65
2021/11/11 09:35:55;;;;;;;6.53;2.85;;;;;;;7.02;45.73;101759.11;1753692;80;21555;-64
2021/11/11 09:38:23;;;;;;;7.53;2.58;;;;;;;7.10;45.58;101754.40;1736306;80;21110;-65
2021/11/11 09:40:51;;;;;;;7.08;2.55;;;;;;;7.17;45.39;101748.44;1755983;80;21074;-65
2021/11/11 09:43:17;;;;;;;7.92;2.77;;;;;;;7.27;45.10;101752.81;1753973;80;21148;-65
2021/11/11 09:45:45;;;;;;;5.62;2.67;;;;;;;7.39;44.58;101753.56;1755400;80;22511;-66
2021/11/11 09:48:14;;;;;;;6.03;2.45;;;;;;;7.50;44.11;101742.16;1761604;80;21051;-61
2021/11/11 09:50:41;;;;;;;4.75;2.00;;;;;;;7.62;42.95;101732.89;1759201;80;21104;-63
2021/11/11 09:53:11;;;;;;;5.28;2.20;;;;;;;7.70;42.01;101730.77;1760028;80;21047;-64
2021/11/11 09:58:34;;;;;;;6.25;2.77;;;;;;;7.84;41.10;101716.17;1737482;80;21091;-65
2021/11/11 10:01:04;;;;;;;5.28;2.37;;;;;;;7.91;41.22;101717.57;1751802;80;21038;-64
2021/11/11 10:03:30;;;;;;;6.70;2.40;;;;;;;7.98;41.47;101707.17;1756293;79;21039;-64
2021/11/11 10:05:57;;;;;;;5.22;1.92;;;;;;;8.06;41.09;101696.33;1728867;80;21097;-64
2021/11/11 10:08:35;;;;;;;8.00;2.70;;;;;;;8.10;40.97;101693.49;1762702;80;22116;-66
2021/11/11 10:11:06;;;;;;;7.58;2.67;;;;;;;8.12;40.96;101682.91;1752846;80;21070;-65
2021/11/11 10:13:34;;;;;;;6.15;1.92;;;;;;;8.13;41.07;101675.44;1751641;80;21039;-66
2021/11/11 10:16:15;;;;;;;6.62;2.95;;;;;;;8.17;40.80;101663.89;1754941;80;21091;-64
2021/11/11 10:18:54;;;;;;;8.30;3.22;;;;;;;8.21;41.51;101660.66;1736486;80;21082;-68
2021/11/11 10:21:46;;;;;;;6.33;2.37;;;;;;;8.27;41.18;101657.70;1748113;80;21148;-63
2021/11/11 10:24:16;;;;;;;7.53;2.62;;;;;;;8.33;40.98;101647.75;1731643;80;20969;-65
2021/11/11 10:26:56;;;;;;;6.08;2.00;;;;;;;8.38;40.65;101644.44;1748092;79;21453;-64
2021/11/11 10:29:37;;;;;;;6.72;2.12;;;;;;;8.43;41.07;101638.16;1736696;80;21591;-65
2021/11/11 10:32:08;;;;;;;5.83;2.47;;;;;;;8.47;41.69;101637.93;1733355;81;20979;-65
2021/11/11 10:34:45;;;;;;;6.50;2.50;;;;;;;8.55;41.77;101624.41;1737738;80;21129;-65
2021/11/11 10:37:11;;;;;;;5.37;2.22;;;;;;;8.62;41.89;101616.59;1738885;81;21393;-66
2021/11/11 10:39:42;;;;;;;5.00;1.67;;;;;;;8.68;42.14;101616.28;1732313;81;21020;-66
2021/11/11 10:42:22;;;;;;;5.60;2.47;;;;;;;8.76;42.05;101607.14;1733904;81;21058;-63
2021/11/11 10:44:50;;;;;;;5.90;1.92;;;;;;;8.84;41.77;101597.09;1739816;81;21168;-65
2021/11/11 10:47:26;;;;;;;13.50;2.55;;;;;;;8.90;41.62;101576.61;1738579;81;21155;-63
2021/11/11 10:49:53;;;;;;;7.78;2.45;;;;;;;8.98;41.30;101576.66;1734162;80;21060;-65
2021/11/11 10:52:28;;;;;;;4.95;2.10;;;;;;;9.05;41.79;101572.31;1740993;80;20979;-66
2021/11/11 10:55:18;;;;;;;5.78;2.30;;;;;;;9.15;41.15;101549.50;1739864;81;21101;-67
2021/11/11 10:58:13;;;;;;;6.47;2.22;;;;;;;9.30;41.59;101545.54;1737414;81;21082;-68
2021/11/11 11:01:01;;;;;;;5.75;2.50;;;;;;;9.42;41.35;101532.17;1714678;82;21648;-64
2021/11/11 11:03:32;;;;;;;9.08;3.08;;;;;;;9.58;40.73;101527.36;1735863;80;21074;-64
2021/11/11 11:06:05;;;;;;;7.10;2.67;;;;;;;9.73;40.84;101529.09;1740149;81;21516;-60
2021/11/11 11:08:37;;;;;;;10.18;2.33;;;;;;;9.85;40.33;101511.30;1708189;82;21081;-65
2021/11/11 11:11:18;;;;;;;7.47;3.05;;;;;;;9.98;40.19;101518.45;1679515;83;21563;-65
2021/11/11 11:13:52;;;;;;;4.92;2.40;;;;;;;10.05;39.76;101526.34;1676922;84;21412;-66
2021/11/11 11:16:28;;;;;;;6.42;2.80;;;;;;;10.13;40.05;101533.80;1709242;81;21075;-66
2021/11/11 11:19:04;;;;;;;6.62;2.98;;;;;;;10.21;39.51;101540.28;1736395;81;21086;-67
2021/11/11 11:21:36;;;;;;;;;;;;;;;10.25;39.60;101546.68;1740517;81;21137;-65
2021/11/11 11:24:11;;;;;;;8.05;2.80;;;;;;;10.26;39.59;101541.81;1736194;81;20537;-67
2021/11/11 11:26:43;;;;;;;6.12;2.40;;;;;;;10.26;39.48;101549.70;1734991;81;21166;-67
2021/11/11 11:29:20;;;;;;;5.92;2.42;;;;;;;10.47;39.04;101551.03;1743714;80;21551;-65
2021/11/11 11:32:06;;;;;;;7.75;2.80;;;;;;;10.58;38.62;101539.39;1723828;80;21086;-66
2021/11/11 11:34:43;;;;;;;6.17;2.90;;;;;;;10.69;38.54;101537.88;1723184;80;21075;-65
2021/11/11 11:37:17;;;;;;;9.40;2.55;;;;;;;10.75;37.24;101529.61;1726585;81;21067;-65
2021/11/11 11:39:54;;;;;;;7.03;2.67;;;;;;;10.73;37.08;101536.28;1751763;80;21133;-66
2021/11/11 11:42:29;;;;;;;5.37;2.77;;;;;;;10.66;37.26;101524.45;1723109;81;21770;-66
2021/11/11 11:44:59;;;;;;;5.75;2.90;;;;;;;10.62;37.45;101526.05;1754157;80;21047;-66
2021/11/11 11:47:43;;;;;;;5.67;2.30;;;;;;;10.58;37.50;101527.55;1745892;80;21150;-66
2021/11/11 11:50:17;;;;;;;6.62;3.02;;;;;;;10.54;37.13;101523.43;1749350;80;21080;-65
2021/11/11 11:52:49;;;;;;;8.45;2.55;;;;;;;10.46;37.42;101523.53;1724838;81;21064;-66
2021/11/11 11:55:34;;;;;;;8.48;2.52;;;;;;;10.42;37.77;101517.58;1753862;80;21094;-66
2021/11/11 11:58:04;;;;;;;4.40;1.90;;;;;;;10.36;37.52;101499.08;1738912;80;21051;-67
2021/11/11 12:05:47;;;;;;;7.30;2.77;;;;;;;10.22;36.60;101492.01;1752979;80;21153;-66
2021/11/11 12:08:30;;;;;;;7.50;2.75;;;;;;;10.20;36.90;101494.34;1749236;80;21043;-66
2021/11/11 12:14:15;;;;;;;6.67;2.65;;;;;;;10.19;36.62;101492.19;1728094;81;21038;-65
2021/11/11 12:16:45;;;;;;;7.45;3.00;;;;;;;10.18;36.60;101476.50;1752982;81;21036;-65
2021/11/11 12:28:37;;;;;;;11.35;2.83;;;;;;;10.14;37.42;101455.28;1750836;79;21040;-64